Glenboro, Canada
Current Conditions -  °F | °C
As of 10:00 AM on Sunday 21 Dec 2014 (Local Time) from CYBR Reporting Station
Moderate Fog Moderate Fog  
Wind Chill: 27°   Ceiling: 100
Heat Index: 27°   Visibility: 0.12mi
Dew Point: 27°   Wind: 3mph
Humidity: 100%   Direction: 160°SSE
Pressure: 29.57"   Gusts: NA
Location:  49.55°N, 99.28°W
Report Text: CYBR 211600Z 16003KT 1/8SM FZFG VV001 M03/M03 A2957 RMK FG8 FROIN SLP040
Loading
Personal Weather Stations






























Interactive Weather Map New forecast layout! Learn more

10-Day Weather Forecast

Advertisements
Track Severe Weather on mobile